Estaimpuis, Belgium
Current Conditions -  °F | °C
As of 3:30 PM on Sunday 21 Dec 2014 (Local Time) from LFQQ Reporting Station
Overcast Overcast  
Wind Chill: 40°   Ceiling: 1300
Heat Index: 46°   Visibility: 6mi
Dew Point: 45°   Wind: 15mph
Humidity: 93%   Direction: 220°SW
Pressure: 30.36"   Gusts: NA
Location:  50.7°N, 3.27°E
Report Text: LFQQ 211430Z 22013KT 9999 OVC013 08/07 Q1028 TEMPO 3000OVC008
Loading
Personal Weather Stations






























Interactive Weather Map New forecast layout! Learn more

10-Day Weather Forecast

Advertisements
Track Severe Weather on mobile